createdAt,value
2023-02-20T00:00:03.885Z,1
2023-02-20T00:01:47.598Z,0
2023-02-20T00:03:31.292Z,1
2023-02-20T00:05:14.974Z,1
2023-02-20T00:06:58.677Z,1
2023-02-20T00:08:42.517Z,1
2023-02-20T00:10:26.084Z,1
2023-02-20T00:12:09.798Z,8
2023-02-20T00:13:53.498Z,10
2023-02-20T00:15:37.243Z,10
2023-02-20T00:17:20.903Z,1
2023-02-20T00:19:04.600Z,1
2023-02-20T00:20:48.296Z,0
2023-02-20T00:22:32.007Z,1
2023-02-20T00:24:15.705Z,1
2023-02-20T00:25:59.402Z,1
2023-02-20T00:27:43.123Z,1
2023-02-20T00:29:26.873Z,1
2023-02-20T00:31:10.520Z,1
2023-02-20T00:32:54.247Z,1
2023-02-20T00:34:37.925Z,1
2023-02-20T00:36:21.644Z,2
2023-02-20T00:38:05.335Z,1
2023-02-20T00:39:49.057Z,9
2023-02-20T00:41:32.748Z,10
2023-02-20T00:43:16.472Z,10
2023-02-20T00:45:00.197Z,1
2023-02-20T00:46:43.850Z,1
2023-02-20T00:48:27.557Z,1
2023-02-20T00:50:11.259Z,1
2023-02-20T00:51:55.086Z,2
2023-02-20T00:53:38.661Z,2
2023-02-20T00:55:22.373Z,1
2023-02-20T00:57:06.064Z,0
2023-02-20T00:58:49.767Z,2
2023-02-20T01:00:33.521Z,0
2023-02-20T01:02:17.188Z,9
2023-02-20T01:04:00.908Z,10
2023-02-20T01:05:44.657Z,10
2023-02-20T01:07:28.312Z,1
2023-02-20T01:09:11.988Z,1
2023-02-20T01:10:55.683Z,1
2023-02-20T01:12:39.404Z,1
2023-02-20T01:14:23.092Z,1
2023-02-20T01:16:06.792Z,2
2023-02-20T01:17:50.494Z,1
2023-02-20T01:19:34.192Z,1
2023-02-20T01:21:17.941Z,2
2023-02-20T01:23:01.602Z,1
2023-02-20T01:24:45.296Z,1
2023-02-20T01:26:29.007Z,1
2023-02-20T01:28:12.708Z,1
2023-02-20T01:29:56.405Z,2
2023-02-20T01:31:40.109Z,0
2023-02-20T01:33:23.823Z,1
2023-02-20T01:35:07.516Z,1
2023-02-20T01:36:51.227Z,2
2023-02-20T01:38:34.920Z,1
2023-02-20T01:40:18.641Z,1
2023-02-20T01:42:02.362Z,1
2023-02-20T01:43:46.033Z,2
2023-02-20T01:45:29.738Z,2
2023-02-20T01:47:13.440Z,2
2023-02-20T01:48:57.142Z,1
2023-02-20T01:50:40.855Z,1
2023-02-20T01:52:24.552Z,1
2023-02-20T01:54:08.248Z,1
2023-02-20T01:55:51.984Z,1
2023-02-20T01:57:35.656Z,1
2023-02-20T01:59:19.372Z,1
2023-02-20T02:01:03.074Z,1
2023-02-20T02:02:46.771Z,1
2023-02-20T02:04:30.467Z,2
2023-02-20T02:06:14.194Z,2
2023-02-20T02:07:57.874Z,1
2023-02-20T02:09:41.583Z,1
2023-02-20T02:11:25.292Z,1
2023-02-20T02:13:08.975Z,1
2023-02-20T02:14:52.711Z,2
2023-02-20T02:16:36.383Z,1
2023-02-20T02:18:20.080Z,2
2023-02-20T02:20:03.783Z,1
2023-02-20T02:21:47.503Z,0
2023-02-20T02:23:31.195Z,1
2023-02-20T02:25:14.891Z,1
2023-02-20T02:26:58.598Z,2
2023-02-20T02:28:42.313Z,0
2023-02-20T02:30:26.002Z,1
2023-02-20T02:32:09.706Z,1
2023-02-20T02:33:53.405Z,1
2023-02-20T02:35:37.123Z,1
2023-02-20T02:37:20.821Z,1
2023-02-20T02:39:04.508Z,1
2023-02-20T02:40:48.219Z,1
2023-02-20T02:42:31.926Z,1
2023-02-20T02:44:15.610Z,1
2023-02-20T02:45:59.335Z,1
2023-02-20T02:47:43.028Z,1
2023-02-20T02:49:26.762Z,2
2023-02-20T02:51:10.432Z,1
2023-02-20T02:52:54.134Z,1
2023-02-20T02:54:37.838Z,1
2023-02-20T02:56:21.563Z,2
2023-02-20T02:58:05.242Z,1
2023-02-20T02:59:48.938Z,1
2023-02-20T03:01:32.651Z,1
2023-02-20T03:03:16.343Z,1
2023-02-20T03:05:00.060Z,1
2023-02-20T03:06:43.752Z,2
2023-02-20T03:08:27.456Z,1
2023-02-20T03:10:11.172Z,1
2023-02-20T03:11:54.895Z,1
2023-02-20T03:13:38.576Z,1
2023-02-20T03:15:22.272Z,2
2023-02-20T03:17:05.972Z,1
2023-02-20T03:20:33.382Z,1
2023-02-20T03:22:17.087Z,1
2023-02-20T03:24:00.808Z,2
2023-02-20T03:25:44.498Z,1
2023-02-20T03:27:28.196Z,1
2023-02-20T03:29:11.900Z,0
2023-02-20T03:30:55.640Z,1
2023-02-20T03:32:39.314Z,1
2023-02-20T03:34:23.022Z,1
2023-02-20T03:36:06.717Z,1
2023-02-20T03:37:50.414Z,1
2023-02-20T03:39:34.164Z,1
2023-02-20T03:41:17.822Z,1
2023-02-20T03:43:01.527Z,1
2023-02-20T03:44:45.231Z,1
2023-02-20T03:46:28.995Z,2
2023-02-20T03:48:12.642Z,1
2023-02-20T03:49:56.365Z,1
2023-02-20T03:51:40.049Z,0
2023-02-20T03:53:23.772Z,1
2023-02-20T03:55:07.479Z,2
2023-02-20T03:56:51.167Z,1
2023-02-20T03:58:34.844Z,1
2023-02-20T04:00:18.556Z,1
2023-02-20T04:02:02.257Z,1
2023-02-20T04:03:45.973Z,1
2023-02-20T04:05:29.674Z,1
2023-02-20T04:07:13.380Z,1
2023-02-20T04:08:57.061Z,1
2023-02-20T04:10:40.794Z,1
2023-02-20T04:12:24.470Z,1
2023-02-20T04:14:08.176Z,1
2023-02-20T04:15:51.875Z,1
2023-02-20T04:17:35.577Z,2
2023-02-20T04:19:19.283Z,2
2023-02-20T04:21:02.996Z,1
2023-02-20T04:22:46.677Z,1
2023-02-20T04:24:30.390Z,1
2023-02-20T04:26:14.081Z,1
2023-02-20T04:27:57.795Z,1
2023-02-20T04:29:41.513Z,2
2023-02-20T04:31:25.206Z,1
2023-02-20T04:33:08.894Z,1
2023-02-20T04:34:52.596Z,1
2023-02-20T04:38:20.025Z,1
2023-02-20T04:40:03.701Z,2
2023-02-20T04:41:47.408Z,1
2023-02-20T04:43:31.117Z,1
2023-02-20T04:45:14.877Z,1
2023-02-20T04:46:58.520Z,1
2023-02-20T04:48:42.212Z,1
2023-02-20T04:50:25.918Z,1
2023-02-20T04:52:09.633Z,1
2023-02-20T04:53:53.321Z,2
2023-02-20T04:55:37.021Z,1
2023-02-20T04:57:20.742Z,1
2023-02-20T04:59:04.441Z,1
2023-02-20T05:00:48.171Z,1
2023-02-20T05:02:31.838Z,0
2023-02-20T05:04:15.539Z,0
2023-02-20T05:05:59.244Z,1
2023-02-20T05:07:42.969Z,1
2023-02-20T05:09:26.649Z,1
2023-02-20T05:11:10.361Z,2
2023-02-20T05:12:54.057Z,1
2023-02-20T05:14:37.787Z,2
2023-02-20T05:16:21.483Z,1
2023-02-20T05:18:05.152Z,1
2023-02-20T05:19:48.869Z,1
2023-02-20T05:21:32.565Z,1
2023-02-20T05:23:16.264Z,1
2023-02-20T05:24:59.981Z,1
2023-02-20T05:26:43.758Z,1
2023-02-20T05:28:27.374Z,2
2023-02-20T05:30:11.082Z,1
2023-02-20T05:31:54.788Z,1
2023-02-20T05:33:38.471Z,0
2023-02-20T05:35:22.183Z,1
2023-02-20T05:37:05.885Z,1
2023-02-20T05:38:49.583Z,1
2023-02-20T05:40:33.282Z,2
2023-02-20T05:42:16.987Z,1
2023-02-20T05:44:00.697Z,1
2023-02-20T05:45:44.387Z,1
2023-02-20T05:47:28.087Z,1
2023-02-20T05:49:11.822Z,1
2023-02-20T05:50:55.536Z,2
2023-02-20T05:52:39.207Z,2
2023-02-20T05:54:22.905Z,2
2023-02-20T05:56:06.599Z,2
2023-02-20T05:57:50.342Z,2
2023-02-20T05:59:34.032Z,3
2023-02-20T06:01:17.720Z,3
2023-02-20T06:03:01.441Z,4
2023-02-20T06:04:45.157Z,4
2023-02-20T06:06:28.834Z,6
2023-02-20T06:08:12.529Z,8
2023-02-20T06:09:56.230Z,9
2023-02-20T06:11:39.945Z,12
2023-02-20T06:13:23.635Z,16
2023-02-20T06:15:07.344Z,20
2023-02-20T06:16:51.047Z,28
2023-02-20T06:18:34.737Z,32
2023-02-20T06:20:18.453Z,36
2023-02-20T06:22:02.165Z,42
2023-02-20T06:23:45.861Z,50
2023-02-20T06:25:29.557Z,60
2023-02-20T06:27:13.258Z,73
2023-02-20T06:28:56.978Z,88
2023-02-20T06:30:40.678Z,103
2023-02-20T06:32:24.367Z,117
2023-02-20T06:34:08.070Z,131
2023-02-20T06:35:51.832Z,146
2023-02-20T06:37:35.481Z,159
2023-02-20T06:39:19.179Z,167
2023-02-20T06:41:02.876Z,174
2023-02-20T06:42:46.691Z,204
2023-02-20T06:44:30.296Z,236
2023-02-20T06:46:14.001Z,260
2023-02-20T06:47:57.695Z,287
2023-02-20T06:49:41.417Z,313
2023-02-20T06:51:25.101Z,339
2023-02-20T06:53:08.820Z,365
2023-02-20T06:54:52.504Z,384
2023-02-20T06:56:36.200Z,408
2023-02-20T06:58:19.912Z,429
2023-02-20T07:00:03.609Z,451
2023-02-20T07:01:47.369Z,469
2023-02-20T07:03:31.024Z,481
2023-02-20T07:05:14.783Z,494
2023-02-20T07:06:58.417Z,518
2023-02-20T07:08:42.147Z,538
2023-02-20T07:10:25.824Z,553
2023-02-20T07:12:09.526Z,581
2023-02-20T07:13:53.231Z,612
2023-02-20T07:15:37.025Z,634
2023-02-20T07:17:20.629Z,665
2023-02-20T07:19:04.343Z,687
2023-02-20T07:20:48.042Z,712
2023-02-20T07:22:31.736Z,733
2023-02-20T07:24:15.440Z,737
2023-02-20T07:25:59.129Z,738
2023-02-20T07:27:42.840Z,738
2023-02-20T07:29:26.540Z,738
2023-02-20T07:31:10.247Z,736
2023-02-20T07:32:53.951Z,738
2023-02-20T07:34:37.656Z,738
2023-02-20T07:36:21.346Z,738
2023-02-20T07:38:05.082Z,736
2023-02-20T07:41:32.452Z,738
2023-02-20T07:43:16.223Z,737
2023-02-20T07:44:59.862Z,729
2023-02-20T07:46:43.578Z,737
2023-02-20T07:48:27.289Z,737
2023-02-20T07:50:10.956Z,738
2023-02-20T07:51:54.675Z,738
2023-02-20T07:53:38.456Z,736
2023-02-20T07:55:22.057Z,737
2023-02-20T07:57:05.772Z,737
2023-02-20T07:58:49.484Z,728
2023-02-20T08:00:33.180Z,738
2023-02-20T08:02:17.022Z,737
2023-02-20T08:04:00.581Z,737
2023-02-20T08:05:44.304Z,738
2023-02-20T08:07:28.045Z,737
2023-02-20T08:09:11.694Z,736
2023-02-20T08:10:55.389Z,737
2023-02-20T08:12:39.099Z,729
2023-02-20T08:14:22.799Z,737
2023-02-20T08:16:06.508Z,737
2023-02-20T08:17:50.192Z,737
2023-02-20T08:19:33.912Z,737
2023-02-20T08:21:17.616Z,738
2023-02-20T08:23:01.443Z,738
2023-02-20T08:24:45.168Z,737
2023-02-20T08:26:28.836Z,735
2023-02-20T08:28:12.410Z,737
2023-02-20T08:29:56.122Z,738
2023-02-20T08:31:39.825Z,736
2023-02-20T08:33:23.587Z,737
2023-02-20T08:35:07.342Z,738
2023-02-20T08:36:50.921Z,738
2023-02-20T08:38:34.630Z,737
2023-02-20T08:40:18.432Z,736
2023-02-20T08:42:02.037Z,737
2023-02-20T08:43:45.923Z,738
2023-02-20T08:45:29.454Z,738
2023-02-20T08:47:13.148Z,738
2023-02-20T08:48:56.848Z,736
2023-02-20T08:50:40.555Z,739
2023-02-20T08:52:24.264Z,738
2023-02-20T08:54:07.952Z,737
2023-02-20T08:55:51.661Z,737
2023-02-20T08:57:35.361Z,737
2023-02-20T08:59:19.081Z,738
2023-02-20T09:01:02.760Z,737
2023-02-20T09:02:46.473Z,728
2023-02-20T09:04:30.184Z,738
2023-02-20T09:06:13.881Z,738
2023-02-20T09:07:57.569Z,737
2023-02-20T09:09:41.275Z,737
2023-02-20T09:11:24.982Z,738
2023-02-20T09:13:08.664Z,738
2023-02-20T09:14:52.378Z,738
2023-02-20T09:16:36.096Z,729
2023-02-20T09:18:19.833Z,737
2023-02-20T09:20:03.495Z,737
2023-02-20T09:21:47.188Z,738
2023-02-20T09:23:30.896Z,738
2023-02-20T09:25:14.618Z,737
2023-02-20T09:26:58.439Z,738
2023-02-20T09:28:42.009Z,737
2023-02-20T09:30:25.757Z,729
2023-02-20T09:32:09.505Z,738
2023-02-20T09:33:53.169Z,737
2023-02-20T09:35:36.814Z,738
2023-02-20T09:37:20.514Z,738
2023-02-20T09:39:04.228Z,738
2023-02-20T09:40:47.937Z,737
2023-02-20T09:42:31.619Z,737
2023-02-20T09:44:15.327Z,728
2023-02-20T09:45:59.014Z,738
2023-02-20T09:47:42.740Z,737
2023-02-20T09:49:26.427Z,738
2023-02-20T09:51:10.138Z,737
2023-02-20T09:52:53.837Z,738
2023-02-20T09:54:37.532Z,738
2023-02-20T09:56:21.239Z,737
2023-02-20T09:58:04.958Z,736
2023-02-20T09:59:48.638Z,738
2023-02-20T10:01:32.340Z,738
2023-02-20T10:03:16.046Z,737
2023-02-20T10:04:59.754Z,737
2023-02-20T10:06:43.457Z,738
2023-02-20T10:08:27.236Z,739
2023-02-20T10:10:11.047Z,738
2023-02-20T10:11:54.675Z,738
2023-02-20T10:13:38.246Z,737
2023-02-20T10:15:21.964Z,738
2023-02-20T10:17:05.684Z,740
2023-02-20T10:18:49.382Z,737
2023-02-20T10:20:33.082Z,737
2023-02-20T10:22:16.783Z,738
2023-02-20T10:24:00.490Z,738
2023-02-20T10:25:44.187Z,738
2023-02-20T10:27:27.909Z,737
2023-02-20T10:29:11.597Z,738
2023-02-20T10:30:55.323Z,738
2023-02-20T10:32:39.007Z,738
2023-02-20T10:34:22.716Z,738
2023-02-20T10:36:06.400Z,737
2023-02-20T10:37:50.134Z,738
2023-02-20T10:39:33.837Z,737
2023-02-20T10:41:17.510Z,738
2023-02-20T10:43:01.220Z,738
2023-02-20T10:44:44.921Z,737
2023-02-20T10:46:28.627Z,738
2023-02-20T10:48:12.335Z,737
2023-02-20T10:49:56.066Z,738
2023-02-20T10:51:39.725Z,738
2023-02-20T10:53:23.470Z,739
2023-02-20T10:55:07.131Z,738
2023-02-20T10:56:50.836Z,738
2023-02-20T10:58:34.535Z,736
2023-02-20T11:00:18.242Z,738
2023-02-20T11:02:01.949Z,738
2023-02-20T11:03:45.648Z,738
2023-02-20T11:05:29.345Z,737
2023-02-20T11:07:13.048Z,739
2023-02-20T11:08:56.762Z,738
2023-02-20T11:10:40.457Z,738
2023-02-20T11:12:24.163Z,729
2023-02-20T11:14:07.860Z,738
2023-02-20T11:15:51.690Z,739
2023-02-20T11:17:35.354Z,739
2023-02-20T11:19:19.086Z,738
2023-02-20T11:21:02.680Z,738
2023-02-20T11:22:46.373Z,739
2023-02-20T11:24:30.171Z,739
2023-02-20T11:26:13.784Z,728
2023-02-20T11:27:57.479Z,738
2023-02-20T11:29:41.176Z,738
2023-02-20T11:31:24.915Z,739
2023-02-20T11:33:08.589Z,739
2023-02-20T11:34:52.299Z,738
2023-02-20T11:36:35.988Z,738
2023-02-20T11:38:19.695Z,738
2023-02-20T11:40:03.407Z,729
2023-02-20T11:41:47.282Z,738
2023-02-20T11:43:30.815Z,738
2023-02-20T11:45:14.507Z,738
2023-02-20T11:46:58.213Z,739
2023-02-20T11:48:41.929Z,738
2023-02-20T11:50:25.616Z,738
2023-02-20T11:52:09.324Z,738
2023-02-20T11:53:53.028Z,729
2023-02-20T11:55:36.731Z,739
2023-02-20T11:57:20.432Z,738
2023-02-20T11:59:04.122Z,738
2023-02-20T12:00:47.826Z,739
2023-02-20T12:02:31.527Z,739
2023-02-20T12:04:15.224Z,738
2023-02-20T12:05:58.931Z,737
2023-02-20T12:07:42.634Z,736
2023-02-20T12:09:26.337Z,739
2023-02-20T12:11:10.044Z,738
2023-02-20T12:12:53.736Z,738
2023-02-20T12:14:37.442Z,738
2023-02-20T12:16:21.148Z,738
2023-02-20T12:18:04.838Z,739
2023-02-20T12:19:48.538Z,738
2023-02-20T12:21:32.262Z,738
2023-02-20T12:23:15.947Z,739
2023-02-20T12:24:59.659Z,739
2023-02-20T12:26:43.376Z,739
2023-02-20T12:28:27.062Z,738
2023-02-20T12:30:10.755Z,738
2023-02-20T12:31:54.466Z,739
2023-02-20T12:33:38.165Z,739
2023-02-20T12:35:21.874Z,738
2023-02-20T12:37:05.579Z,738
2023-02-20T12:38:49.332Z,739
2023-02-20T12:40:32.984Z,739
2023-02-20T12:42:16.680Z,738
2023-02-20T12:44:00.394Z,738
2023-02-20T12:45:44.087Z,738
2023-02-20T12:47:27.797Z,739
2023-02-20T12:49:11.496Z,738
2023-02-20T12:50:55.210Z,738
2023-02-20T12:52:38.932Z,738
2023-02-20T12:54:22.630Z,738
2023-02-20T12:56:06.307Z,739
2023-02-20T12:57:50.008Z,738
2023-02-20T12:59:33.707Z,738
2023-02-20T13:01:17.420Z,739
2023-02-20T13:03:01.118Z,738
2023-02-20T13:04:44.822Z,738
2023-02-20T13:06:28.529Z,738
2023-02-20T13:08:12.214Z,739
2023-02-20T13:09:55.945Z,738
2023-02-20T13:11:39.628Z,739
2023-02-20T13:13:23.332Z,738
2023-02-20T13:15:07.030Z,739
2023-02-20T13:16:50.763Z,738
2023-02-20T13:18:34.434Z,740
2023-02-20T13:20:18.146Z,737
2023-02-20T13:22:01.901Z,739
2023-02-20T13:23:45.618Z,738
2023-02-20T13:25:29.253Z,739
2023-02-20T13:27:12.989Z,739
2023-02-20T13:28:56.682Z,738
2023-02-20T13:30:40.363Z,736
2023-02-20T13:32:24.061Z,738
2023-02-20T13:34:07.788Z,738
2023-02-20T13:35:51.469Z,739
2023-02-20T13:37:35.199Z,739
2023-02-20T13:39:18.883Z,739
2023-02-20T13:41:02.577Z,739
2023-02-20T13:42:46.293Z,739
2023-02-20T13:44:29.985Z,738
2023-02-20T13:46:13.691Z,739
2023-02-20T13:47:57.384Z,740
2023-02-20T13:49:41.090Z,738
2023-02-20T13:51:24.814Z,738
2023-02-20T13:53:08.505Z,738
2023-02-20T13:54:52.191Z,739
2023-02-20T13:56:35.893Z,738
2023-02-20T13:58:19.602Z,738
2023-02-20T14:00:03.313Z,738
2023-02-20T14:01:47.013Z,739
2023-02-20T14:03:30.712Z,739
2023-02-20T14:05:14.415Z,738
2023-02-20T14:06:58.117Z,738
2023-02-20T14:08:41.839Z,739
2023-02-20T14:10:25.524Z,739
2023-02-20T14:12:09.224Z,738
2023-02-20T14:13:52.925Z,739
2023-02-20T14:15:36.631Z,739
2023-02-20T14:17:20.349Z,740
2023-02-20T14:19:04.123Z,740
2023-02-20T14:20:47.727Z,732
2023-02-20T14:22:31.614Z,739
2023-02-20T14:24:15.154Z,739
2023-02-20T14:25:58.890Z,739
2023-02-20T14:27:42.673Z,738
2023-02-20T14:29:26.263Z,739
2023-02-20T14:31:09.967Z,739
2023-02-20T14:32:53.652Z,739
2023-02-20T14:34:37.354Z,729
2023-02-20T14:36:21.057Z,739
2023-02-20T14:38:04.767Z,740
2023-02-20T14:39:48.453Z,740
2023-02-20T14:41:32.169Z,739
2023-02-20T14:43:15.874Z,738
2023-02-20T14:44:59.555Z,738
2023-02-20T14:46:43.422Z,739
2023-02-20T14:48:27.098Z,736
2023-02-20T14:50:10.673Z,739
2023-02-20T14:51:54.382Z,739
2023-02-20T14:53:38.080Z,740
2023-02-20T14:55:21.812Z,739
2023-02-20T14:57:05.495Z,739
2023-02-20T14:58:49.184Z,739
2023-02-20T15:00:32.997Z,739
2023-02-20T15:02:16.717Z,740
2023-02-20T15:04:00.295Z,740
2023-02-20T15:05:43.996Z,739
2023-02-20T15:07:27.694Z,739
2023-02-20T15:09:11.400Z,739
2023-02-20T15:10:55.114Z,730
2023-02-20T15:12:38.810Z,738
2023-02-20T15:14:22.552Z,739
2023-02-20T15:16:06.195Z,739
2023-02-20T15:17:49.907Z,740
2023-02-20T15:19:33.620Z,740
2023-02-20T15:21:17.311Z,739
2023-02-20T15:24:44.723Z,739
2023-02-20T15:26:28.432Z,740
2023-02-20T15:28:12.130Z,739
2023-02-20T15:29:55.824Z,739
2023-02-20T15:31:39.594Z,740
2023-02-20T15:33:23.330Z,739
2023-02-20T15:35:07.015Z,739
2023-02-20T15:36:50.630Z,739
2023-02-20T15:38:34.341Z,739
2023-02-20T15:40:18.078Z,740
2023-02-20T15:42:01.748Z,740
2023-02-20T15:43:45.448Z,739
2023-02-20T15:45:29.147Z,740
2023-02-20T15:47:12.848Z,739
2023-02-20T15:48:56.546Z,740
2023-02-20T15:50:40.246Z,739
2023-02-20T15:52:23.949Z,739
2023-02-20T15:54:07.655Z,741
2023-02-20T15:55:51.389Z,740
2023-02-20T15:57:35.051Z,740
2023-02-20T15:59:18.755Z,739
2023-02-20T16:01:02.478Z,741
2023-02-20T16:02:46.160Z,740
2023-02-20T16:04:29.860Z,739
2023-02-20T16:06:13.574Z,740
2023-02-20T16:07:57.270Z,739
2023-02-20T16:09:40.983Z,738
2023-02-20T16:11:24.677Z,628
2023-02-20T16:13:08.516Z,581
2023-02-20T16:14:52.093Z,551
2023-02-20T16:16:35.773Z,524
2023-02-20T16:18:19.481Z,499
2023-02-20T16:20:03.186Z,475
2023-02-20T16:21:46.892Z,456
2023-02-20T16:23:30.596Z,437
2023-02-20T16:25:14.293Z,417
2023-02-20T16:26:57.996Z,403
2023-02-20T16:28:41.698Z,382
2023-02-20T16:30:25.393Z,358
2023-02-20T16:32:09.102Z,332
2023-02-20T16:33:52.801Z,291
2023-02-20T16:35:36.505Z,256
2023-02-20T16:37:20.217Z,241
2023-02-20T16:39:03.910Z,220
2023-02-20T16:40:47.615Z,201
2023-02-20T16:42:31.334Z,188
2023-02-20T16:44:15.018Z,177
2023-02-20T16:45:58.729Z,161
2023-02-20T16:47:42.435Z,147
2023-02-20T16:49:26.128Z,133
2023-02-20T16:51:09.826Z,118
2023-02-20T16:52:53.559Z,107
2023-02-20T16:54:37.236Z,95
2023-02-20T16:56:20.992Z,83
2023-02-20T16:58:04.688Z,72
2023-02-20T16:59:48.396Z,58
2023-02-20T17:01:32.040Z,50
2023-02-20T17:03:15.742Z,43
2023-02-20T17:04:59.649Z,35
2023-02-20T17:06:43.147Z,28
2023-02-20T17:08:26.847Z,22
2023-02-20T17:10:10.557Z,18
2023-02-20T17:11:54.256Z,15
2023-02-20T17:13:37.952Z,12
2023-02-20T17:15:21.648Z,9
2023-02-20T17:17:05.362Z,7
2023-02-20T17:18:49.061Z,5
2023-02-20T17:20:32.763Z,3
2023-02-20T17:22:16.466Z,3
2023-02-20T17:24:00.172Z,3
2023-02-20T17:25:43.876Z,2
2023-02-20T17:27:27.580Z,3
2023-02-20T17:29:11.263Z,2
2023-02-20T17:30:55.077Z,2
2023-02-20T17:32:38.708Z,2
2023-02-20T17:34:22.388Z,2
2023-02-20T17:36:06.087Z,1
2023-02-20T17:37:49.795Z,1
2023-02-20T17:39:33.496Z,1
2023-02-20T17:41:17.202Z,2
2023-02-20T17:43:00.902Z,1
2023-02-20T17:44:44.623Z,1
2023-02-20T17:46:28.312Z,1
2023-02-20T17:48:12.014Z,1
2023-02-20T17:49:55.714Z,1
2023-02-20T17:51:39.420Z,1
2023-02-20T17:53:23.123Z,1
2023-02-20T17:55:06.832Z,1
2023-02-20T17:56:50.519Z,1
2023-02-20T17:58:34.243Z,1
2023-02-20T18:00:17.937Z,1
2023-02-20T18:02:01.629Z,1
2023-02-20T18:03:45.344Z,1
2023-02-20T18:05:29.040Z,1
2023-02-20T18:07:12.747Z,1
2023-02-20T18:08:56.555Z,0
2023-02-20T18:10:40.176Z,1
2023-02-20T18:12:23.905Z,1
2023-02-20T18:14:07.551Z,1
2023-02-20T18:15:51.251Z,1
2023-02-20T18:17:34.963Z,9
2023-02-20T18:19:18.651Z,10
2023-02-20T18:21:02.373Z,10
2023-02-20T18:22:46.077Z,9
2023-02-20T18:24:29.765Z,11
2023-02-20T18:26:13.460Z,10
2023-02-20T18:27:57.166Z,10
2023-02-20T18:29:40.866Z,10
2023-02-20T18:31:24.575Z,10
2023-02-20T18:33:08.275Z,10
2023-02-20T18:34:51.977Z,11
2023-02-20T18:36:35.689Z,11
2023-02-20T18:38:19.376Z,10
2023-02-20T18:40:03.087Z,10
2023-02-20T18:41:46.792Z,11
2023-02-20T18:43:30.488Z,9
2023-02-20T18:45:14.190Z,1
2023-02-20T18:46:57.894Z,2
2023-02-20T18:48:41.598Z,1
2023-02-20T18:50:25.306Z,1
2023-02-20T18:52:09.002Z,2
2023-02-20T18:53:52.707Z,1
2023-02-20T18:55:36.415Z,2
2023-02-20T18:57:20.145Z,1
2023-02-20T18:59:03.820Z,1
2023-02-20T19:00:47.524Z,1
2023-02-20T19:02:31.222Z,1
2023-02-20T19:04:14.935Z,1
2023-02-20T19:05:58.637Z,1
2023-02-20T19:07:42.327Z,2
2023-02-20T19:09:26.027Z,1
2023-02-20T19:11:09.733Z,10
2023-02-20T19:12:53.431Z,10
2023-02-20T19:14:37.146Z,10
2023-02-20T19:16:20.835Z,10
2023-02-20T19:18:04.555Z,17
2023-02-20T19:19:48.240Z,17
2023-02-20T19:21:31.951Z,17
2023-02-20T19:23:15.709Z,17
2023-02-20T19:24:59.352Z,17
2023-02-20T19:26:43.067Z,17
2023-02-20T19:28:26.756Z,17
2023-02-20T19:30:10.452Z,17
2023-02-20T19:31:54.152Z,17
2023-02-20T19:33:37.863Z,18
2023-02-20T19:35:21.565Z,17
2023-02-20T19:37:05.290Z,17
2023-02-20T19:38:49.013Z,18
2023-02-20T19:40:32.676Z,18
2023-02-20T19:42:16.386Z,18
2023-02-20T19:44:00.175Z,18
2023-02-20T19:45:43.785Z,18
2023-02-20T19:47:27.541Z,18
2023-02-20T19:49:11.188Z,18
2023-02-20T19:50:54.964Z,17
2023-02-20T19:52:38.596Z,17
2023-02-20T19:54:22.330Z,18
2023-02-20T19:56:06.001Z,18
2023-02-20T19:57:49.696Z,18
2023-02-20T19:59:33.396Z,17
2023-02-20T20:01:17.104Z,17
2023-02-20T20:03:00.830Z,18
2023-02-20T20:04:44.548Z,18
2023-02-20T20:06:28.208Z,17
2023-02-20T20:08:11.910Z,2
2023-02-20T20:09:55.623Z,3
2023-02-20T20:11:39.312Z,2
2023-02-20T20:13:23.021Z,2
2023-02-20T20:15:06.721Z,2
2023-02-20T20:16:50.420Z,2
2023-02-20T20:18:34.128Z,2
2023-02-20T20:20:17.823Z,2
2023-02-20T20:22:01.646Z,2
2023-02-20T20:23:45.354Z,3
2023-02-20T20:25:28.940Z,3
2023-02-20T20:27:12.736Z,2
2023-02-20T20:28:56.350Z,2
2023-02-20T20:30:40.032Z,2
2023-02-20T20:32:23.785Z,2
2023-02-20T20:34:07.448Z,2
2023-02-20T20:35:51.143Z,3
2023-02-20T20:37:34.879Z,2
2023-02-20T20:39:18.546Z,3
2023-02-20T20:41:02.263Z,3
2023-02-20T20:42:46.025Z,2
2023-02-20T20:44:29.703Z,2
2023-02-20T20:46:13.373Z,2
2023-02-20T20:47:57.078Z,2
2023-02-20T20:49:40.821Z,2
2023-02-20T20:51:24.467Z,2
2023-02-20T20:53:08.173Z,11
2023-02-20T20:54:51.892Z,11
2023-02-20T20:56:35.602Z,10
2023-02-20T20:58:19.301Z,11
2023-02-20T21:00:03.002Z,11
2023-02-20T21:01:46.693Z,2
2023-02-20T21:03:30.398Z,2
2023-02-20T21:05:14.170Z,2
2023-02-20T21:06:57.931Z,2
2023-02-20T21:08:41.540Z,1
2023-02-20T21:10:25.228Z,1
2023-02-20T21:12:08.910Z,0
2023-02-20T21:13:52.648Z,0
2023-02-20T21:15:36.319Z,1
2023-02-20T21:17:20.019Z,1
2023-02-20T21:19:03.721Z,1
2023-02-20T21:20:47.434Z,2
2023-02-20T21:22:31.124Z,2
2023-02-20T21:24:14.855Z,1
2023-02-20T21:25:58.538Z,1
2023-02-20T21:27:42.239Z,1
2023-02-20T21:29:25.953Z,1
2023-02-20T21:31:09.703Z,1
2023-02-20T21:32:53.344Z,2
2023-02-20T21:34:37.050Z,1
2023-02-20T21:36:20.742Z,1
2023-02-20T21:38:04.459Z,1
2023-02-20T21:39:48.154Z,2
2023-02-20T21:41:31.873Z,1
2023-02-20T21:43:15.574Z,1
2023-02-20T21:44:59.267Z,1
2023-02-20T21:46:42.988Z,2
2023-02-20T21:48:26.674Z,0
2023-02-20T21:50:10.376Z,1
2023-02-20T21:51:54.072Z,2
2023-02-20T21:53:37.768Z,1
2023-02-20T21:55:21.511Z,2
2023-02-20T21:57:05.184Z,2
2023-02-20T21:58:48.876Z,2
2023-02-20T22:00:32.585Z,2
2023-02-20T22:02:16.292Z,3
2023-02-20T22:03:59.986Z,3
2023-02-20T22:05:43.686Z,3
2023-02-20T22:07:27.493Z,2
2023-02-20T22:09:11.087Z,3
2023-02-20T22:10:54.794Z,2
2023-02-20T22:12:38.495Z,3
2023-02-20T22:14:22.209Z,3
2023-02-20T22:16:05.909Z,3
2023-02-20T22:17:49.614Z,3
2023-02-20T22:19:33.326Z,3
2023-02-20T22:21:17.025Z,3
2023-02-20T22:23:00.722Z,3
2023-02-20T22:24:44.421Z,3
2023-02-20T22:26:28.127Z,3
2023-02-20T22:28:11.825Z,3
2023-02-20T22:29:55.558Z,3
2023-02-20T22:31:39.382Z,2
2023-02-20T22:33:23.057Z,3
2023-02-20T22:35:06.644Z,2
2023-02-20T22:36:50.343Z,2
2023-02-20T22:38:34.046Z,3
2023-02-20T22:40:17.770Z,2
2023-02-20T22:42:01.457Z,3
2023-02-20T22:43:45.165Z,3
2023-02-20T22:45:28.866Z,3
2023-02-20T22:47:12.573Z,3
2023-02-20T22:48:56.276Z,2
2023-02-20T22:50:39.979Z,3
2023-02-20T22:52:23.684Z,3
2023-02-20T22:54:07.548Z,3
2023-02-20T22:55:51.073Z,3
2023-02-20T22:57:34.780Z,3
2023-02-20T22:59:18.487Z,3
2023-02-20T23:01:02.193Z,3
2023-02-20T23:02:45.893Z,3
2023-02-20T23:04:29.590Z,2
2023-02-20T23:06:13.294Z,3
2023-02-20T23:07:57.008Z,3
2023-02-20T23:09:40.690Z,12
2023-02-20T23:11:24.403Z,12
2023-02-20T23:13:08.101Z,11
2023-02-20T23:14:51.806Z,11
2023-02-20T23:16:35.506Z,11
2023-02-20T23:18:19.216Z,12
2023-02-20T23:20:02.947Z,3
2023-02-20T23:21:46.618Z,4
2023-02-20T23:23:30.311Z,3
2023-02-20T23:25:14.023Z,3
2023-02-20T23:26:57.750Z,4
2023-02-20T23:28:41.422Z,3
2023-02-20T23:30:25.127Z,3
2023-02-20T23:32:08.844Z,3
2023-02-20T23:33:52.522Z,3
2023-02-20T23:35:36.233Z,3
2023-02-20T23:37:19.926Z,3
2023-02-20T23:39:03.631Z,2
2023-02-20T23:40:47.356Z,3
2023-02-20T23:42:31.033Z,3
2023-02-20T23:44:14.733Z,3
2023-02-20T23:45:58.440Z,2
2023-02-20T23:47:42.138Z,3
2023-02-20T23:49:25.861Z,11
2023-02-20T23:51:09.566Z,12
2023-02-20T23:52:53.240Z,12
2023-02-20T23:54:36.956Z,5
2023-02-20T23:56:20.659Z,3
2023-02-20T23:58:04.396Z,2
2023-02-20T23:59:48.064Z,3
